createdAt,value
2022-12-11T00:00:15.755Z,-1.2
2022-12-11T00:01:15.910Z,-1.2
2022-12-11T00:02:16.200Z,-1.2
2022-12-11T00:03:16.709Z,-1.2
2022-12-11T00:04:16.984Z,-1.2
2022-12-11T00:05:17.151Z,-1.2
2022-12-11T00:06:17.315Z,-1.3
2022-12-11T00:07:17.470Z,-1.3
2022-12-11T00:08:17.814Z,-1.3
2022-12-11T00:09:18.127Z,-1.3
2022-12-11T00:10:18.279Z,-1.3
2022-12-11T00:11:18.433Z,-1.3
2022-12-11T00:12:18.582Z,-1.3
2022-12-11T00:13:18.729Z,-1.3
2022-12-11T00:14:18.883Z,-1.3
2022-12-11T00:15:19.045Z,-1.3
2022-12-11T00:16:27.012Z,-1.4
2022-12-11T00:17:27.676Z,-1.4
2022-12-11T00:18:27.839Z,-1.4
2022-12-11T00:19:27.999Z,-1.4
2022-12-11T00:20:28.158Z,-1.4
2022-12-11T00:21:28.305Z,-1.4
2022-12-11T00:22:28.467Z,-1.4
2022-12-11T00:23:28.626Z,-1.4
2022-12-11T00:24:28.774Z,-1.4
2022-12-11T00:25:28.936Z,-1.4
2022-12-11T00:26:29.091Z,-1.5
2022-12-11T00:27:29.254Z,-1.5
2022-12-11T00:28:29.401Z,-1.5
2022-12-11T00:29:29.554Z,-1.5
2022-12-11T00:30:29.704Z,-1.5
2022-12-11T00:31:29.945Z,-1.5
2022-12-11T00:32:37.411Z,-1.5
2022-12-11T00:33:38.060Z,-1.6
2022-12-11T00:34:38.217Z,-1.6
2022-12-11T00:35:38.372Z,-1.6
2022-12-11T00:36:38.522Z,-1.6
2022-12-11T00:37:38.915Z,-1.6
2022-12-11T00:38:39.166Z,-1.6
2022-12-11T00:39:39.326Z,-1.6
2022-12-11T00:40:39.485Z,-1.6
2022-12-11T00:41:39.641Z,-1.6
2022-12-11T00:42:39.795Z,-1.6
2022-12-11T00:43:39.945Z,-1.6
2022-12-11T00:44:40.097Z,-1.6
2022-12-11T00:45:40.395Z,-1.6
2022-12-11T00:46:40.620Z,-1.7
2022-12-11T00:47:40.769Z,-1.7
2022-12-11T00:48:40.920Z,-1.7
2022-12-11T00:49:49.694Z,-1.7
2022-12-11T00:50:50.524Z,-1.7
2022-12-11T00:51:50.675Z,-1.7
2022-12-11T00:52:50.821Z,-1.7
2022-12-11T00:53:50.990Z,-1.7
2022-12-11T00:54:51.143Z,-1.7
2022-12-11T00:55:51.300Z,-1.8
2022-12-11T00:56:51.450Z,-1.8
2022-12-11T00:57:51.598Z,-1.8
2022-12-11T00:58:51.772Z,-1.8
2022-12-11T00:59:51.956Z,-1.8
2022-12-11T01:00:52.116Z,-1.8
2022-12-11T01:01:52.265Z,-1.8
2022-12-11T01:02:52.574Z,-1.8
2022-12-11T01:03:52.861Z,-1.8
2022-12-11T01:04:53.015Z,-1.8
2022-12-11T01:05:53.158Z,-1.9
2022-12-11T01:06:53.303Z,-1.9
2022-12-11T01:07:53.549Z,-1.9
2022-12-11T01:08:53.796Z,-1.9
2022-12-11T01:09:53.955Z,-1.9
2022-12-11T01:10:54.211Z,-1.9
2022-12-11T01:11:54.513Z,-1.9
2022-12-11T01:12:54.667Z,-1.9
2022-12-11T01:13:54.828Z,-1.9
2022-12-11T01:14:54.993Z,-1.9
2022-12-11T01:15:55.155Z,-1.9
2022-12-11T01:16:55.395Z,-1.9
2022-12-11T01:17:55.637Z,-1.9
2022-12-11T01:18:55.796Z,-1.9
2022-12-11T01:19:55.949Z,-1.9
2022-12-11T01:20:56.104Z,-1.9
2022-12-11T01:21:56.255Z,-1.9
2022-12-11T01:22:56.413Z,-1.9
2022-12-11T01:23:56.571Z,-1.9
2022-12-11T01:24:56.726Z,-1.9
2022-12-11T01:25:56.879Z,-2
2022-12-11T01:26:57.033Z,-2
2022-12-11T01:27:57.193Z,-2
2022-12-11T01:28:57.353Z,-2
2022-12-11T01:29:57.511Z,-2
2022-12-11T01:30:57.747Z,-2
2022-12-11T01:31:58.003Z,-2
2022-12-11T01:32:58.157Z,-2
2022-12-11T01:33:58.307Z,-2
2022-12-11T01:34:58.465Z,-2
2022-12-11T01:35:58.619Z,-2
2022-12-11T01:36:58.769Z,-2
2022-12-11T01:37:58.919Z,-2
2022-12-11T01:38:59.078Z,-2
2022-12-11T01:39:59.232Z,-2
2022-12-11T01:40:59.386Z,-2
2022-12-11T01:41:59.541Z,-2
2022-12-11T01:42:59.702Z,-2
2022-12-11T01:43:59.854Z,-2
2022-12-11T01:45:00.007Z,-2
2022-12-11T01:46:00.298Z,-2.09
2022-12-11T01:47:00.517Z,-2.09
2022-12-11T01:48:00.675Z,-2.09
2022-12-11T01:49:00.835Z,-2.09
2022-12-11T01:50:00.979Z,-2.09
2022-12-11T01:51:01.128Z,-2.09
2022-12-11T01:52:01.282Z,-2.09
2022-12-11T01:53:01.441Z,-2.09
2022-12-11T01:54:01.593Z,-2.09
2022-12-11T01:55:01.772Z,-2.09
2022-12-11T01:56:01.924Z,-2.09
2022-12-11T01:57:02.082Z,-2.09
2022-12-11T01:58:02.243Z,-2.09
2022-12-11T01:59:02.392Z,-2.09
2022-12-11T02:00:02.541Z,-2.09
2022-12-11T02:01:02.833Z,-2.09
2022-12-11T02:02:03.321Z,-2.09
2022-12-11T02:03:03.607Z,-2.09
2022-12-11T02:04:03.753Z,-2.09
2022-12-11T02:05:03.912Z,-2.09
2022-12-11T02:06:04.069Z,-2.2
2022-12-11T02:07:04.227Z,-2.2
2022-12-11T02:08:04.528Z,-2.2
2022-12-11T02:09:04.723Z,-2.2
2022-12-11T02:10:04.869Z,-2.2
2022-12-11T02:11:05.026Z,-2.2
2022-12-11T02:12:05.192Z,-2.2
2022-12-11T02:13:05.345Z,-2.2
2022-12-11T02:14:05.503Z,-2.2
2022-12-11T02:15:05.665Z,-2.2
2022-12-11T02:16:05.936Z,-2.2
2022-12-11T02:17:06.202Z,-2.2
2022-12-11T02:18:06.362Z,-2.2
2022-12-11T02:19:06.518Z,-2.2
2022-12-11T02:20:06.672Z,-2.2
2022-12-11T02:21:06.824Z,-2.2
2022-12-11T02:22:06.981Z,-2.2
2022-12-11T02:23:07.138Z,-2.2
2022-12-11T02:24:07.304Z,-2.2
2022-12-11T02:25:07.884Z,-2.2
2022-12-11T02:26:08.592Z,-2.2
2022-12-11T02:27:08.748Z,-2.2
2022-12-11T02:28:08.909Z,-2.2
2022-12-11T02:29:09.062Z,-2.2
2022-12-11T02:30:09.227Z,-2.2
2022-12-11T02:31:09.540Z,-2.2
2022-12-11T02:32:09.800Z,-2.2
2022-12-11T02:33:09.960Z,-2.2
2022-12-11T02:34:10.111Z,-2.2
2022-12-11T02:35:10.902Z,-2.2
2022-12-11T02:36:11.592Z,-2.3
2022-12-11T02:37:11.742Z,-2.3
2022-12-11T02:38:11.895Z,-2.3
2022-12-11T02:39:12.051Z,-2.3
2022-12-11T02:40:12.207Z,-2.3
2022-12-11T02:41:12.356Z,-2.3
2022-12-11T02:42:12.504Z,-2.3
2022-12-11T02:43:12.662Z,-2.3
2022-12-11T02:44:12.819Z,-2.3
2022-12-11T02:45:13.513Z,-2.3
2022-12-11T02:46:14.108Z,-2.3
2022-12-11T02:47:14.392Z,-2.3
2022-12-11T02:48:14.552Z,-2.3
2022-12-11T02:49:14.705Z,-2.3
2022-12-11T02:50:14.852Z,-2.3
2022-12-11T02:51:15.011Z,-2.3
2022-12-11T02:52:15.159Z,-2.3
2022-12-11T02:53:15.318Z,-2.3
2022-12-11T02:54:15.474Z,-2.3
2022-12-11T02:55:15.629Z,-2.3
2022-12-11T02:56:15.781Z,-2.4
2022-12-11T02:57:15.927Z,-2.4
2022-12-11T02:58:16.082Z,-2.4
2022-12-11T02:59:16.233Z,-2.4
2022-12-11T03:00:16.383Z,-2.4
2022-12-11T03:01:16.648Z,-2.4
2022-12-11T03:02:17.100Z,-2.4
2022-12-11T03:03:17.415Z,-2.4
2022-12-11T03:04:17.580Z,-2.4
2022-12-11T03:05:17.737Z,-2.4
2022-12-11T03:06:17.890Z,-2.4
2022-12-11T03:07:18.141Z,-2.4
2022-12-11T03:08:18.355Z,-2.4
2022-12-11T03:09:18.552Z,-2.4
2022-12-11T03:10:18.705Z,-2.4
2022-12-11T03:11:18.852Z,-2.4
2022-12-11T03:12:18.998Z,-2.4
2022-12-11T03:13:19.148Z,-2.4
2022-12-11T03:14:19.302Z,-2.4
2022-12-11T03:15:19.487Z,-2.4
2022-12-11T03:16:19.711Z,-2.4
2022-12-11T03:17:20.077Z,-2.4
2022-12-11T03:18:20.227Z,-2.4
2022-12-11T03:19:20.381Z,-2.4
2022-12-11T03:20:20.539Z,-2.4
2022-12-11T03:21:20.689Z,-2.4
2022-12-11T03:22:20.840Z,-2.4
2022-12-11T03:23:20.993Z,-2.4
2022-12-11T03:24:21.147Z,-2.4
2022-12-11T03:25:21.298Z,-2.4
2022-12-11T03:26:21.448Z,-2.4
2022-12-11T03:27:21.598Z,-2.4
2022-12-11T03:28:21.749Z,-2.4
2022-12-11T03:29:21.898Z,-2.4
2022-12-11T03:30:22.093Z,-2.4
2022-12-11T03:31:22.254Z,-2.4
2022-12-11T03:32:22.406Z,-2.4
2022-12-11T03:33:22.562Z,-2.4
2022-12-11T03:34:22.719Z,-2.4
2022-12-11T03:35:22.881Z,-2.4
2022-12-11T03:36:23.030Z,-2.4
2022-12-11T03:37:23.178Z,-2.4
2022-12-11T03:38:23.325Z,-2.4
2022-12-11T03:39:23.476Z,-2.4
2022-12-11T03:40:23.638Z,-2.4
2022-12-11T03:41:23.787Z,-2.4
2022-12-11T03:42:23.936Z,-2.4
2022-12-11T03:43:24.097Z,-2.4
2022-12-11T03:44:24.247Z,-2.4
2022-12-11T03:45:24.409Z,-2.4
2022-12-11T03:46:24.652Z,-2.4
2022-12-11T03:47:24.872Z,-2.4
2022-12-11T03:48:25.041Z,-2.4
2022-12-11T03:49:25.203Z,-2.4
2022-12-11T03:50:25.355Z,-2.4
2022-12-11T03:51:25.512Z,-2.4
2022-12-11T03:52:25.663Z,-2.4
2022-12-11T03:53:25.815Z,-2.4
2022-12-11T03:54:25.968Z,-2.4
2022-12-11T03:55:26.123Z,-2.4
2022-12-11T03:56:26.274Z,-2.5
2022-12-11T03:57:26.426Z,-2.5
2022-12-11T03:58:26.577Z,-2.5
2022-12-11T03:59:26.726Z,-2.5
2022-12-11T04:00:26.875Z,-2.5
2022-12-11T04:01:27.181Z,-2.5
2022-12-11T04:02:27.422Z,-2.5
2022-12-11T04:03:27.572Z,-2.5
2022-12-11T04:04:27.811Z,-2.5
2022-12-11T04:05:28.224Z,-2.5
2022-12-11T04:06:28.382Z,-2.7
2022-12-11T04:07:28.535Z,-2.7
2022-12-11T04:08:28.875Z,-2.7
2022-12-11T04:09:29.112Z,-2.7
2022-12-11T04:10:29.266Z,-2.7
2022-12-11T04:11:29.425Z,-2.7
2022-12-11T04:12:29.582Z,-2.7
2022-12-11T04:13:29.868Z,-2.7
2022-12-11T04:14:30.033Z,-2.7
2022-12-11T04:15:30.183Z,-2.7
2022-12-11T04:16:30.329Z,-2.8
2022-12-11T04:17:30.480Z,-2.8
2022-12-11T04:18:30.630Z,-2.8
2022-12-11T04:19:30.783Z,-2.8
2022-12-11T04:20:30.935Z,-2.8
2022-12-11T04:21:39.199Z,-2.8
2022-12-11T04:22:40.169Z,-2.8
2022-12-11T04:23:40.342Z,-2.8
2022-12-11T04:24:40.496Z,-2.8
2022-12-11T04:25:40.647Z,-2.9
2022-12-11T04:26:40.807Z,-2.9
2022-12-11T04:27:40.959Z,-2.9
2022-12-11T04:28:41.112Z,-2.9
2022-12-11T04:29:41.261Z,-2.9
2022-12-11T04:30:41.717Z,-2.9
2022-12-11T04:31:41.964Z,-2.9
2022-12-11T04:32:42.113Z,-2.9
2022-12-11T04:33:42.271Z,-2.9
2022-12-11T04:34:42.420Z,-2.9
2022-12-11T04:35:42.571Z,-2.9
2022-12-11T04:36:42.727Z,-2.9
2022-12-11T04:37:42.882Z,-2.9
2022-12-11T04:38:43.043Z,-2.9
2022-12-11T04:39:43.207Z,-2.9
2022-12-11T04:40:43.368Z,-2.9
2022-12-11T04:41:43.517Z,-2.9
2022-12-11T04:42:43.673Z,-2.9
2022-12-11T04:43:43.828Z,-2.9
2022-12-11T04:44:43.973Z,-2.9
2022-12-11T04:45:44.130Z,-2.9
2022-12-11T04:46:44.349Z,-2.9
2022-12-11T04:47:44.572Z,-2.9
2022-12-11T04:48:44.725Z,-2.9
2022-12-11T04:49:44.877Z,-2.9
2022-12-11T04:50:45.018Z,-2.9
2022-12-11T04:51:45.162Z,-2.9
2022-12-11T04:52:45.311Z,-2.9
2022-12-11T04:53:45.471Z,-2.9
2022-12-11T04:54:45.628Z,-2.9
2022-12-11T04:55:45.784Z,-3
2022-12-11T04:56:45.931Z,-3
2022-12-11T04:57:46.076Z,-3
2022-12-11T04:58:46.229Z,-3
2022-12-11T04:59:46.392Z,-3
2022-12-11T05:00:46.546Z,-3
2022-12-11T05:01:46.805Z,-3
2022-12-11T05:02:47.133Z,-3
2022-12-11T05:03:47.334Z,-3
2022-12-11T05:04:47.488Z,-3
2022-12-11T05:05:47.665Z,-3
2022-12-11T05:06:47.819Z,-3
2022-12-11T05:07:48.046Z,-3
2022-12-11T05:08:48.259Z,-3
2022-12-11T05:09:48.414Z,-3
2022-12-11T05:10:50.313Z,-3
2022-12-11T05:11:50.463Z,-3
2022-12-11T05:12:50.618Z,-3
2022-12-11T05:13:50.770Z,-3
2022-12-11T05:14:50.925Z,-3
2022-12-11T05:15:51.232Z,-3.1
2022-12-11T05:16:51.464Z,-3.1
2022-12-11T05:17:51.608Z,-3.1
2022-12-11T05:18:51.770Z,-3.1
2022-12-11T05:19:51.929Z,-3.1
2022-12-11T05:20:52.079Z,-3.1
2022-12-11T05:21:52.245Z,-3.1
2022-12-11T05:22:52.418Z,-3.1
2022-12-11T05:23:52.570Z,-3.1
2022-12-11T05:24:52.724Z,-3.1
2022-12-11T05:25:52.877Z,-3.3
2022-12-11T05:26:53.025Z,-3.3
2022-12-11T05:27:53.176Z,-3.3
2022-12-11T05:28:53.373Z,-3.3
2022-12-11T05:29:59.645Z,-3.3
2022-12-11T05:31:00.230Z,-3.4
2022-12-11T05:32:00.523Z,-3.4
2022-12-11T05:33:00.673Z,-3.4
2022-12-11T05:34:00.838Z,-3.4
2022-12-11T05:35:00.992Z,-3.4
2022-12-11T05:36:01.141Z,-3.5
2022-12-11T05:37:01.292Z,-3.5
2022-12-11T05:38:01.449Z,-3.5
2022-12-11T05:39:01.624Z,-3.5
2022-12-11T05:40:01.775Z,-3.5
2022-12-11T05:41:01.932Z,-3.5
2022-12-11T05:42:02.087Z,-3.5
2022-12-11T05:43:02.242Z,-3.5
2022-12-11T05:44:02.406Z,-3.5
2022-12-11T05:45:02.570Z,-3.5
2022-12-11T05:46:02.731Z,-3.7
2022-12-11T05:47:02.949Z,-3.7
2022-12-11T05:48:03.216Z,-3.7
2022-12-11T05:49:03.366Z,-3.7
2022-12-11T05:50:03.519Z,-3.7
2022-12-11T05:51:03.677Z,-3.7
2022-12-11T05:52:03.827Z,-3.7
2022-12-11T05:53:03.983Z,-3.7
2022-12-11T05:54:04.139Z,-3.7
2022-12-11T05:55:04.297Z,-3.7
2022-12-11T05:56:04.454Z,-3.8
2022-12-11T05:57:04.609Z,-3.8
2022-12-11T05:58:04.756Z,-3.8
2022-12-11T05:59:04.912Z,-3.8
2022-12-11T06:00:05.070Z,-3.8
2022-12-11T06:01:05.226Z,-3.8
2022-12-11T06:02:05.663Z,-3.8
2022-12-11T06:03:06.111Z,-3.8
2022-12-11T06:04:06.600Z,-3.8
2022-12-11T06:05:06.758Z,-3.8
2022-12-11T06:06:06.902Z,-4
2022-12-11T06:07:07.062Z,-4
2022-12-11T06:08:07.324Z,-4
2022-12-11T06:09:07.584Z,-4
2022-12-11T06:10:07.737Z,-4
2022-12-11T06:11:07.886Z,-4
2022-12-11T06:12:08.038Z,-4
2022-12-11T06:13:08.199Z,-4
2022-12-11T06:14:08.347Z,-4
2022-12-11T06:15:09.050Z,-4
2022-12-11T06:16:10.033Z,-4
2022-12-11T06:17:10.313Z,-4
2022-12-11T06:18:10.471Z,-4
2022-12-11T06:19:10.628Z,-4
2022-12-11T06:20:10.808Z,-4
2022-12-11T06:21:10.963Z,-4
2022-12-11T06:22:11.117Z,-4
2022-12-11T06:23:11.270Z,-4
2022-12-11T06:24:11.423Z,-4
2022-12-11T06:25:12.096Z,-4
2022-12-11T06:26:12.665Z,-4.1
2022-12-11T06:27:12.818Z,-4.1
2022-12-11T06:28:12.974Z,-4.1
2022-12-11T06:29:13.400Z,-4.1
2022-12-11T06:30:13.548Z,-4.1
2022-12-11T06:31:15.800Z,-4.1
2022-12-11T06:32:16.175Z,-4.1
2022-12-11T06:33:16.326Z,-4.1
2022-12-11T06:34:16.480Z,-4.1
2022-12-11T06:35:16.662Z,-4.1
2022-12-11T06:36:16.815Z,-4.19
2022-12-11T06:37:16.963Z,-4.19
2022-12-11T06:38:17.114Z,-4.19
2022-12-11T06:39:17.257Z,-4.19
2022-12-11T06:40:17.440Z,-4.19
2022-12-11T06:41:17.595Z,-4.19
2022-12-11T06:42:17.755Z,-4.19
2022-12-11T06:43:17.903Z,-4.19
2022-12-11T06:44:18.054Z,-4.19
2022-12-11T06:45:18.211Z,-4.19
2022-12-11T06:46:18.522Z,-4.19
2022-12-11T06:47:18.843Z,-4.19
2022-12-11T06:48:18.990Z,-4.19
2022-12-11T06:49:19.140Z,-4.19
2022-12-11T06:50:19.295Z,-4.19
2022-12-11T06:51:19.476Z,-4.19
2022-12-11T06:52:19.633Z,-4.19
2022-12-11T06:53:19.789Z,-4.19
2022-12-11T06:54:19.942Z,-4.19
2022-12-11T06:55:20.098Z,-4.19
2022-12-11T06:56:20.249Z,-4.19
2022-12-11T06:57:20.388Z,-4.19
2022-12-11T06:58:20.531Z,-4.19
2022-12-11T06:59:20.683Z,-4.19
2022-12-11T07:00:20.836Z,-4.19
2022-12-11T07:01:21.195Z,-4.19
2022-12-11T07:02:21.749Z,-4.19
2022-12-11T07:03:22.026Z,-4.19
2022-12-11T07:04:22.178Z,-4.19
2022-12-11T07:05:22.331Z,-4.19
2022-12-11T07:06:22.495Z,-4.19
2022-12-11T07:07:22.654Z,-4.19
2022-12-11T07:08:22.903Z,-4.19
2022-12-11T07:09:23.160Z,-4.19
2022-12-11T07:10:23.313Z,-4.19
2022-12-11T07:11:23.468Z,-4.19
2022-12-11T07:12:23.624Z,-4.19
2022-12-11T07:13:23.775Z,-4.19
2022-12-11T07:14:23.931Z,-4.19
2022-12-11T07:15:24.087Z,-4.19
2022-12-11T07:16:24.349Z,-4.3
2022-12-11T07:17:24.570Z,-4.3
2022-12-11T07:18:24.721Z,-4.3
2022-12-11T07:19:24.870Z,-4.3
2022-12-11T07:20:25.018Z,-4.3
2022-12-11T07:21:25.181Z,-4.3
2022-12-11T07:22:25.333Z,-4.3
2022-12-11T07:23:25.490Z,-4.3
2022-12-11T07:24:25.651Z,-4.3
2022-12-11T07:25:25.808Z,-4.3
2022-12-11T07:26:25.960Z,-4.5
2022-12-11T07:27:26.119Z,-4.5
2022-12-11T07:28:26.273Z,-4.5
2022-12-11T07:29:26.423Z,-4.5
2022-12-11T07:30:26.572Z,-4.5
2022-12-11T07:31:26.822Z,-4.5
2022-12-11T07:32:27.415Z,-4.5
2022-12-11T07:33:27.794Z,-4.5
2022-12-11T07:34:27.946Z,-4.5
2022-12-11T07:35:28.102Z,-4.5
2022-12-11T07:36:28.267Z,-4.6
2022-12-11T07:37:28.419Z,-4.6
2022-12-11T07:38:28.573Z,-4.6
2022-12-11T07:39:28.729Z,-4.6
2022-12-11T07:40:28.896Z,-4.6
2022-12-11T07:41:29.084Z,-4.6
2022-12-11T07:42:29.245Z,-4.6
2022-12-11T07:43:29.406Z,-4.6
2022-12-11T07:44:29.582Z,-4.6
2022-12-11T07:45:29.892Z,-4.6
2022-12-11T07:46:30.107Z,-4.5
2022-12-11T07:47:30.256Z,-4.5
2022-12-11T07:48:30.420Z,-4.5
2022-12-11T07:49:30.560Z,-4.5
2022-12-11T07:50:38.108Z,-4.5
2022-12-11T07:51:40.206Z,-4.3
2022-12-11T07:52:40.361Z,-4.3
2022-12-11T07:53:40.514Z,-4.3
2022-12-11T07:54:40.670Z,-4.3
2022-12-11T07:55:40.820Z,-4.1
2022-12-11T07:56:44.102Z,-4.1
2022-12-11T07:57:46.596Z,-4.1
2022-12-11T07:58:46.748Z,-4.1
2022-12-11T07:59:46.909Z,-4.1
2022-12-11T08:00:47.098Z,-4.1
2022-12-11T08:01:47.326Z,-4.1
2022-12-11T08:02:47.574Z,-4.1
2022-12-11T08:03:47.832Z,-4.1
2022-12-11T08:04:47.986Z,-4.1
2022-12-11T08:05:48.141Z,-3.7
2022-12-11T08:06:48.309Z,-3.7
2022-12-11T08:07:48.537Z,-3.7
2022-12-11T08:08:48.757Z,-3.7
2022-12-11T08:09:48.910Z,-3.7
2022-12-11T08:10:49.068Z,-3.7
2022-12-11T08:11:49.220Z,-3.7
2022-12-11T08:12:49.374Z,-3.7
2022-12-11T08:13:49.528Z,-3.7
2022-12-11T08:14:49.685Z,-3.7
2022-12-11T08:15:49.830Z,-3.1
2022-12-11T08:16:50.112Z,-3.1
2022-12-11T08:17:50.370Z,-3.1
2022-12-11T08:18:50.526Z,-3.1
2022-12-11T08:19:50.692Z,-3.1
2022-12-11T08:20:50.844Z,-3.1
2022-12-11T08:21:51.008Z,-3.1
2022-12-11T08:22:59.254Z,-3.1
2022-12-11T08:23:59.604Z,-2.6
2022-12-11T08:24:59.753Z,-2.6
2022-12-11T08:25:59.908Z,-2.5
2022-12-11T08:27:00.079Z,-2.5
2022-12-11T08:28:00.232Z,-2.5
2022-12-11T08:29:00.383Z,-2.5
2022-12-11T08:30:00.534Z,-2.5
2022-12-11T08:31:00.838Z,-2.5
2022-12-11T08:32:01.106Z,-2.5
2022-12-11T08:33:01.259Z,-2.5
2022-12-11T08:34:01.409Z,-2.5
2022-12-11T08:35:01.565Z,-2.5
2022-12-11T08:36:01.951Z,-1.7
2022-12-11T08:37:02.116Z,-1.7
2022-12-11T08:38:02.328Z,-1.7
2022-12-11T08:39:02.516Z,-1.7
2022-12-11T08:40:02.682Z,-1.7
2022-12-11T08:41:02.846Z,-1.7
2022-12-11T08:42:03.006Z,-1.7
2022-12-11T08:43:03.161Z,-1.7
2022-12-11T08:44:06.180Z,-1.7
2022-12-11T08:45:08.926Z,-1.1
2022-12-11T08:46:10.004Z,-1
2022-12-11T08:47:10.287Z,-1
2022-12-11T08:48:10.438Z,-1
2022-12-11T08:49:10.593Z,-1
2022-12-11T08:50:10.745Z,-1
2022-12-11T08:51:10.899Z,-1
2022-12-11T08:52:11.065Z,-1
2022-12-11T08:53:11.208Z,-1
2022-12-11T08:54:11.351Z,-1
2022-12-11T08:55:12.016Z,-1
2022-12-11T08:56:12.810Z,-0.6
2022-12-11T08:57:12.971Z,-0.6
2022-12-11T08:58:13.137Z,-0.6
2022-12-11T08:59:13.281Z,-0.6
2022-12-11T09:00:13.434Z,-0.6
2022-12-11T09:01:13.708Z,-0.6
2022-12-11T09:02:14.144Z,-0.6
2022-12-11T09:03:14.435Z,-0.6
2022-12-11T09:04:14.582Z,-0.6
2022-12-11T09:05:14.733Z,-0.6
2022-12-11T09:06:14.881Z,-0.1
2022-12-11T09:07:15.034Z,-0.1
2022-12-11T09:08:15.234Z,-0.1
2022-12-11T09:09:15.519Z,-0.1
2022-12-11T09:10:15.677Z,-0.1
2022-12-11T09:11:15.836Z,-0.1
2022-12-11T09:12:15.990Z,-0.1
2022-12-11T09:13:16.140Z,-0.1
2022-12-11T09:14:16.292Z,-0.1
2022-12-11T09:15:16.447Z,-0.1
2022-12-11T09:16:16.676Z,0.5
2022-12-11T09:17:16.952Z,0.5
2022-12-11T09:18:17.100Z,0.5
2022-12-11T09:19:17.249Z,0.5
2022-12-11T09:20:17.395Z,0.5
2022-12-11T09:21:17.557Z,0.5
2022-12-11T09:22:17.710Z,0.5
2022-12-11T09:23:17.867Z,0.5
2022-12-11T09:24:18.033Z,0.5
2022-12-11T09:25:18.184Z,0.5
2022-12-11T09:26:18.335Z,1.2
2022-12-11T09:27:18.499Z,1.2
2022-12-11T09:28:18.649Z,1.2
2022-12-11T09:29:18.798Z,1.2
2022-12-11T09:30:18.979Z,1.2
2022-12-11T09:31:19.275Z,1.2
2022-12-11T09:32:19.542Z,1.2
2022-12-11T09:33:19.682Z,1.2
2022-12-11T09:34:19.927Z,1.2
2022-12-11T09:35:27.530Z,2
2022-12-11T09:36:27.690Z,2.09
2022-12-11T09:37:27.853Z,2.09
2022-12-11T09:38:28.012Z,2.09
2022-12-11T09:39:28.163Z,2.09
2022-12-11T09:40:28.323Z,2.09
2022-12-11T09:41:28.477Z,2.09
2022-12-11T09:42:28.638Z,2.09
2022-12-11T09:43:28.789Z,2.09
2022-12-11T09:44:28.940Z,2.09
2022-12-11T09:45:29.092Z,2.09
2022-12-11T09:46:34.433Z,2.8
2022-12-11T09:47:34.761Z,2.9
2022-12-11T09:48:34.910Z,2.9
2022-12-11T09:49:35.075Z,2.9
2022-12-11T09:50:35.229Z,2.9
2022-12-11T09:51:35.376Z,2.9
2022-12-11T09:52:35.553Z,2.9
2022-12-11T09:53:35.716Z,2.9
2022-12-11T09:54:35.874Z,2.9
2022-12-11T09:55:36.027Z,2.9
2022-12-11T09:56:36.182Z,3.4
2022-12-11T09:57:36.340Z,3.4
2022-12-11T09:58:36.488Z,3.4
2022-12-11T09:59:36.640Z,3.4
2022-12-11T10:00:36.792Z,3.4
2022-12-11T10:01:37.053Z,3.4
2022-12-11T10:02:37.377Z,3.4
2022-12-11T10:03:37.613Z,3.4
2022-12-11T10:04:37.770Z,3.4
2022-12-11T10:05:37.923Z,4.1
2022-12-11T10:06:38.076Z,4.1
2022-12-11T10:07:38.227Z,4.1
2022-12-11T10:08:38.375Z,4.1
2022-12-11T10:09:38.534Z,4.1
2022-12-11T10:10:38.682Z,4.1
2022-12-11T10:11:38.843Z,4.1
2022-12-11T10:12:39.001Z,4.1
2022-12-11T10:13:39.152Z,4.1
2022-12-11T10:14:39.443Z,4.1
2022-12-11T10:15:39.769Z,4.8
2022-12-11T10:16:40.024Z,4.8
2022-12-11T10:17:40.176Z,4.8
2022-12-11T10:18:40.334Z,4.8
2022-12-11T10:19:40.486Z,4.8
2022-12-11T10:20:40.634Z,4.8
2022-12-11T10:21:40.811Z,4.8
2022-12-11T10:22:40.962Z,4.8
2022-12-11T10:23:41.120Z,4.8
2022-12-11T10:25:12.093Z,4.8
2022-12-11T10:26:12.965Z,5.4
2022-12-11T10:27:13.120Z,5.4
2022-12-11T10:28:13.278Z,5.4
2022-12-11T10:29:13.436Z,5.4
2022-12-11T10:30:13.589Z,5.4
2022-12-11T10:31:13.918Z,5.4
2022-12-11T10:32:14.226Z,5.4
2022-12-11T10:33:14.390Z,5.4
2022-12-11T10:34:14.937Z,5.4
2022-12-11T10:35:15.089Z,5.4
2022-12-11T10:36:15.238Z,6.2
2022-12-11T10:37:15.394Z,6.2
2022-12-11T10:38:15.550Z,6.2
2022-12-11T10:39:15.702Z,6.2
2022-12-11T10:40:15.989Z,6.2
2022-12-11T10:41:16.263Z,6.2
2022-12-11T10:42:16.420Z,6.2
2022-12-11T10:43:16.576Z,6.2
2022-12-11T10:44:16.722Z,6.2
2022-12-11T10:45:16.872Z,6.2
2022-12-11T10:46:17.148Z,6.9
2022-12-11T10:47:17.372Z,6.9
2022-12-11T10:48:17.525Z,6.9
2022-12-11T10:49:17.683Z,6.9
2022-12-11T10:50:17.837Z,6.9
2022-12-11T10:51:17.990Z,6.9
2022-12-11T10:52:18.140Z,6.9
2022-12-11T10:53:18.299Z,6.9
2022-12-11T10:54:18.460Z,6.9
2022-12-11T10:55:18.618Z,6.9
2022-12-11T10:56:18.772Z,7.2
2022-12-11T10:57:18.933Z,7.2
2022-12-11T10:58:19.093Z,7.2
2022-12-11T10:59:24.231Z,7.2
2022-12-11T11:00:24.528Z,7.4
2022-12-11T11:01:24.776Z,7.4
2022-12-11T11:02:25.067Z,7.4
2022-12-11T11:03:25.365Z,7.4
2022-12-11T11:04:25.508Z,7.4
2022-12-11T11:05:25.655Z,7.4
2022-12-11T11:06:25.809Z,7.5
2022-12-11T11:07:25.972Z,7.5
2022-12-11T11:08:26.247Z,7.5
2022-12-11T11:09:26.491Z,7.5
2022-12-11T11:10:26.646Z,7.5
2022-12-11T11:11:26.800Z,7.5
2022-12-11T11:12:26.968Z,7.5
2022-12-11T11:13:27.135Z,7.5
2022-12-11T11:14:27.289Z,7.5
2022-12-11T11:15:27.446Z,7.5
2022-12-11T11:16:27.678Z,8
2022-12-11T11:17:35.371Z,8
2022-12-11T11:18:39.729Z,8.1
2022-12-11T11:19:39.881Z,8.1
2022-12-11T11:20:40.030Z,8.1
2022-12-11T11:21:40.187Z,8.1
2022-12-11T11:22:40.351Z,8.1
2022-12-11T11:23:50.599Z,8.1
2022-12-11T11:24:53.849Z,8.2
2022-12-11T11:25:53.989Z,8.2
2022-12-11T11:27:13.796Z,8.2
2022-12-11T11:28:14.428Z,8.3
2022-12-11T11:29:14.581Z,8.3
2022-12-11T11:30:14.734Z,8.3
2022-12-11T11:31:14.984Z,8.3
2022-12-11T11:32:15.262Z,8.3
2022-12-11T11:33:15.409Z,8.3
2022-12-11T11:34:15.563Z,8.3
2022-12-11T11:35:15.716Z,8.3
2022-12-11T11:36:15.872Z,8.7
2022-12-11T11:37:16.021Z,8.7
2022-12-11T11:38:16.172Z,8.7
2022-12-11T11:39:16.325Z,8.7
2022-12-11T11:40:16.475Z,8.7
2022-12-11T11:41:16.629Z,8.7
2022-12-11T11:42:16.790Z,8.7
2022-12-11T11:43:16.942Z,8.7
2022-12-11T11:44:17.092Z,8.7
2022-12-11T11:45:17.259Z,8.7
2022-12-11T11:46:17.478Z,8.3
2022-12-11T11:47:17.688Z,8.3
2022-12-11T11:48:17.840Z,8.3
2022-12-11T11:49:17.992Z,8.3
2022-12-11T11:50:18.137Z,8.3
2022-12-11T11:51:18.285Z,8.3
2022-12-11T11:52:18.435Z,8.3
2022-12-11T11:53:18.585Z,8.3
2022-12-11T11:54:18.741Z,8.3
2022-12-11T11:55:23.050Z,8.3
2022-12-11T11:56:23.878Z,7.4
2022-12-11T11:57:24.079Z,7.4
2022-12-11T11:58:24.313Z,7.4
2022-12-11T11:59:24.468Z,7.4
2022-12-11T12:00:33.525Z,7.4
2022-12-11T12:01:34.342Z,7.2
2022-12-11T12:02:34.625Z,7.2
2022-12-11T12:03:34.972Z,7.2
2022-12-11T12:04:35.190Z,7.2
2022-12-11T12:05:35.410Z,7.2
2022-12-11T12:06:35.573Z,7
2022-12-11T12:07:35.737Z,7
2022-12-11T12:08:35.888Z,7
2022-12-11T12:09:36.186Z,7
2022-12-11T12:10:36.450Z,7
2022-12-11T12:11:36.609Z,7
2022-12-11T12:12:36.763Z,7
2022-12-11T12:13:52.324Z,7
2022-12-11T12:14:53.094Z,6.5
2022-12-11T12:15:53.701Z,6.4
2022-12-11T12:16:54.365Z,6.4
2022-12-11T12:17:56.565Z,6.4
2022-12-11T12:18:56.770Z,6.4
2022-12-11T12:19:56.935Z,6.4
2022-12-11T12:20:57.104Z,6.4
2022-12-11T12:21:57.256Z,6.4
2022-12-11T12:22:57.406Z,6.4
2022-12-11T12:23:57.562Z,6.4
2022-12-11T12:24:57.713Z,6.4
2022-12-11T12:25:57.866Z,6.2
2022-12-11T12:26:58.023Z,6.2
2022-12-11T12:27:58.168Z,6.2
2022-12-11T12:28:58.319Z,6.2
2022-12-11T12:29:58.465Z,6.2
2022-12-11T12:30:58.628Z,6.2
2022-12-11T12:31:58.883Z,6.2
2022-12-11T12:32:59.102Z,6.2
2022-12-11T12:33:59.257Z,6.2
2022-12-11T12:34:59.414Z,6.2
2022-12-11T12:36:07.152Z,6.7
2022-12-11T12:37:07.671Z,6.8
2022-12-11T12:38:07.821Z,6.8
2022-12-11T12:39:08.060Z,6.8
2022-12-11T12:40:08.219Z,6.8
2022-12-11T12:41:08.367Z,6.8
2022-12-11T12:42:08.521Z,6.8
2022-12-11T12:43:08.673Z,6.8
2022-12-11T12:44:08.961Z,6.8
2022-12-11T12:45:10.104Z,7.7
2022-12-11T12:46:10.956Z,7.7
2022-12-11T12:47:11.276Z,7.7
2022-12-11T12:48:11.436Z,7.7
2022-12-11T12:49:11.587Z,7.7
2022-12-11T12:50:11.736Z,7.7
2022-12-11T12:51:11.893Z,7.7
2022-12-11T12:52:12.044Z,7.7
2022-12-11T12:53:12.204Z,7.7
2022-12-11T12:54:12.778Z,7.7
2022-12-11T12:55:13.665Z,8.5
2022-12-11T12:56:14.699Z,8.5
2022-12-11T12:57:14.856Z,8.5
2022-12-11T12:58:15.005Z,8.5
2022-12-11T12:59:15.148Z,8.5
2022-12-11T13:00:15.467Z,8.5
2022-12-11T13:01:15.786Z,8.5
2022-12-11T13:02:16.261Z,8.5
2022-12-11T13:03:16.520Z,8.5
2022-12-11T13:04:55.802Z,9.1
2022-12-11T13:05:56.904Z,9.2
2022-12-11T13:06:57.055Z,9.2
2022-12-11T13:07:57.332Z,9.2
2022-12-11T13:08:57.727Z,9.2
2022-12-11T13:09:57.872Z,9.2
2022-12-11T13:10:58.028Z,9.2
2022-12-11T13:11:58.175Z,9.2
2022-12-11T13:12:58.333Z,9.2
2022-12-11T13:13:58.487Z,9.2
2022-12-11T13:14:58.638Z,9.1
2022-12-11T13:15:58.901Z,9.1
2022-12-11T13:16:59.134Z,9.1
2022-12-11T13:17:59.285Z,9.1
2022-12-11T13:18:59.440Z,9.1
2022-12-11T13:19:59.596Z,9.1
2022-12-11T13:20:59.739Z,9.1
2022-12-11T13:21:59.896Z,9.1
2022-12-11T13:23:00.087Z,9.1
2022-12-11T13:24:00.242Z,9.1
2022-12-11T13:25:00.394Z,8.3
2022-12-11T13:26:00.541Z,8.3
2022-12-11T13:27:00.708Z,8.3
2022-12-11T13:28:00.856Z,8.3
2022-12-11T13:29:01.000Z,8.3
2022-12-11T13:30:01.156Z,8.3
2022-12-11T13:31:01.306Z,8.3
2022-12-11T13:32:01.691Z,8.3
2022-12-11T13:33:02.013Z,8.3
2022-12-11T13:34:02.163Z,8.3
2022-12-11T13:35:02.311Z,7.6
2022-12-11T13:36:02.470Z,7.6
2022-12-11T13:37:02.621Z,7.6